Time;durP1;ratioP1;P1;durP2;ratioP2;P2;SDS_P1;SDS_P2;PMS_P1;PMS_P2;Temp;Humidity;BMP_temperature;BMP_pressure;BME280_temperature;BME280_humidity;BME280_pressure;Samples;Min_cycle;Max_cycle;Signal;HPM_P1;HPM_P2
2022/09/15 00:00:45;;;;;;;4.88;2.75;;;15.00;99.90;;;;;;5019744;28;20050;-71
2022/09/15 00:03:12;;;;;;;6.35;2.75;;;15.00;99.90;;;;;;5042236;28;20040;-72
2022/09/15 00:05:37;;;;;;;4.95;2.35;;;15.00;99.90;;;;;;5035122;28;20033;-73
2022/09/15 00:08:03;;;;;;;9.18;3.13;;;15.00;99.90;;;;;;5010009;28;20160;-73
2022/09/15 00:10:28;;;;;;;8.52;2.83;;;15.00;99.90;;;;;;5040486;28;20088;-72
2022/09/15 00:12:55;;;;;;;6.22;2.58;;;15.00;99.90;;;;;;5035393;28;20042;-72
2022/09/15 00:15:21;;;;;;;5.07;2.60;;;15.00;99.90;;;;;;5042206;28;20049;-72
2022/09/15 00:17:49;;;;;;;10.20;3.55;;;15.10;99.90;;;;;;5036969;28;20094;-72
2022/09/15 00:20:16;;;;;;;7.72;3.00;;;14.90;99.90;;;;;;5016735;28;20495;-72
2022/09/15 00:22:43;;;;;;;6.75;2.50;;;15.00;99.90;;;;;;5026187;28;20060;-71
2022/09/15 00:25:09;;;;;;;10.25;2.95;;;15.00;99.90;;;;;;5020861;28;20045;-72
2022/09/15 00:27:35;;;;;;;11.40;3.20;;;15.00;99.90;;;;;;5018940;28;20628;-71
2022/09/15 00:30:02;;;;;;;10.77;3.03;;;15.00;99.90;;;;;;5025814;28;20043;-73
2022/09/15 00:32:28;;;;;;;10.38;2.67;;;15.00;99.90;;;;;;5037147;28;20475;-72
2022/09/15 00:34:54;;;;;;;10.52;3.45;;;15.00;99.90;;;;;;5042127;28;20102;-74
2022/09/15 00:37:20;;;;;;;6.13;2.53;;;15.00;99.90;;;;;;5027107;28;20041;-72
2022/09/15 00:39:45;;;;;;;8.75;2.58;;;15.00;99.90;;;;;;5036937;28;20476;-71
2022/09/15 00:42:20;;;;;;;10.45;2.35;;;15.00;99.90;;;;;;5042111;28;20052;-72
2022/09/15 00:44:48;;;;;;;6.32;2.30;;;15.00;99.90;;;;;;5038021;28;20049;-73
2022/09/15 00:47:15;;;;;;;6.72;2.22;;;15.00;99.90;;;;;;5005681;28;20052;-71
2022/09/15 00:49:42;;;;;;;7.40;2.22;;;15.00;99.90;;;;;;5043114;28;20041;-71
2022/09/15 00:52:19;;;;;;;10.68;2.33;;;15.00;99.90;;;;;;5040773;28;20041;-72
2022/09/15 00:55:09;;;;;;;6.22;1.88;;;14.90;99.90;;;;;;5039231;28;20049;-70
2022/09/15 00:57:37;;;;;;;;;;;15.00;99.90;;;;;;5046373;28;20128;-72
2022/09/15 01:00:09;;;;;;;7.07;1.70;;;15.00;99.90;;;;;;5025043;28;20048;-72
2022/09/15 01:02:36;;;;;;;6.70;1.48;;;15.00;99.90;;;;;;5046808;28;20032;-73
2022/09/15 01:05:06;;;;;;;11.93;1.90;;;15.00;99.90;;;;;;5029184;28;20563;-71
2022/09/15 01:07:37;;;;;;;6.07;1.88;;;15.10;99.90;;;;;;5042934;28;20057;-73
2022/09/15 01:10:16;;;;;;;10.02;1.65;;;15.10;99.90;;;;;;5049174;28;20053;-71
2022/09/15 01:12:42;;;;;;;7.25;1.67;;;15.10;99.90;;;;;;5048378;28;20135;-70
2022/09/15 01:15:08;;;;;;;9.10;1.65;;;15.10;99.90;;;;;;5048806;28;20128;-72
2022/09/15 01:17:36;;;;;;;10.38;2.08;;;15.10;99.90;;;;;;5025949;28;20046;-72
2022/09/15 01:20:30;;;;;;;11.38;1.77;;;15.20;99.90;;;;;;5040243;28;20511;-70
2022/09/15 01:23:26;;;;;;;5.60;1.58;;;15.10;99.90;;;;;;5044864;28;20553;-69
2022/09/15 01:26:05;;;;;;;5.63;1.23;;;15.10;99.90;;;;;;5042280;28;20127;-71
2022/09/15 01:28:43;;;;;;;6.25;1.52;;;15.20;99.90;;;;;;5044303;28;20045;-71
2022/09/15 01:31:22;;;;;;;6.57;1.73;;;15.20;99.90;;;;;;5047200;28;20395;-69
2022/09/15 01:33:50;;;;;;;6.25;1.48;;;15.20;99.90;;;;;;5045153;28;20048;-71
2022/09/15 01:36:24;;;;;;;8.93;2.40;;;15.20;99.90;;;;;;5080410;22;20560;-69
2022/09/15 01:39:01;;;;;;;6.75;1.50;;;15.30;99.90;;;;;;5062929;28;20059;-69
2022/09/15 01:41:34;;;;;;;8.02;1.70;;;15.20;99.90;;;;;;5060629;28;20056;-68
2022/09/15 01:44:08;;;;;;;5.82;1.33;;;15.20;99.90;;;;;;5061783;28;20103;-68
2022/09/15 01:46:41;;;;;;;6.70;1.45;;;15.20;99.90;;;;;;5055982;28;20623;-70
2022/09/15 01:49:09;;;;;;;6.45;1.88;;;15.20;99.90;;;;;;5060759;28;20182;-70
2022/09/15 01:51:36;;;;;;;12.50;1.77;;;15.20;99.90;;;;;;5067591;28;20045;-69
2022/09/15 01:54:05;;;;;;;6.40;1.67;;;15.20;99.90;;;;;;5057576;28;20049;-70
2022/09/15 01:56:31;;;;;;;14.82;1.90;;;15.20;99.90;;;;;;5065062;28;20060;-69
2022/09/15 01:58:57;;;;;;;11.93;1.83;;;15.20;99.90;;;;;;5064062;28;20045;-68
2022/09/15 02:01:26;;;;;;;8.70;1.67;;;15.20;99.90;;;;;;5065098;28;20074;-68
2022/09/15 02:04:04;;;;;;;11.82;1.85;;;15.20;99.90;;;;;;5064591;28;20112;-69
2022/09/15 02:06:38;;;;;;;5.63;1.63;;;15.30;99.90;;;;;;5062117;28;20044;-69
2022/09/15 02:09:19;;;;;;;9.55;1.83;;;15.40;99.90;;;;;;5063499;28;20032;-71
2022/09/15 02:12:21;;;;;;;8.50;1.83;;;15.20;99.90;;;;;;5061006;28;20040;-70
2022/09/15 02:15:02;;;;;;;8.25;1.67;;;14.90;99.90;;;;;;5062361;28;20291;-68
2022/09/15 02:17:31;;;;;;;7.88;1.65;;;14.70;99.90;;;;;;5057775;28;20102;-69
2022/09/15 02:20:10;;;;;;;8.82;1.80;;;14.60;99.90;;;;;;5061786;28;20028;-71
2022/09/15 02:22:42;;;;;;;11.40;1.80;;;14.60;99.90;;;;;;5062518;28;20045;-68
2022/09/15 02:25:12;;;;;;;10.85;1.77;;;14.50;99.90;;;;;;5066747;28;20045;-70
2022/09/15 02:27:43;;;;;;;10.20;2.08;;;14.40;99.90;;;;;;5064418;28;20063;-69
2022/09/15 02:30:13;;;;;;;7.60;1.65;;;14.40;99.90;;;;;;5059064;28;20044;-68
2022/09/15 02:32:46;;;;;;;9.38;1.45;;;14.20;99.90;;;;;;5054552;28;20056;-69
2022/09/15 02:35:15;;;;;;;5.90;1.92;;;14.30;99.90;;;;;;5065344;28;20054;-67
2022/09/15 02:37:42;;;;;;;6.20;1.70;;;14.20;99.90;;;;;;5064267;28;20056;-69
2022/09/15 02:40:08;;;;;;;6.38;1.67;;;14.20;99.90;;;;;;5055744;28;20041;-69
2022/09/15 02:42:34;;;;;;;6.15;1.50;;;14.00;99.90;;;;;;5057407;28;20037;-69
2022/09/15 02:45:01;;;;;;;9.60;1.98;;;13.90;99.90;;;;;;5055424;28;20108;-69
2022/09/15 02:47:27;;;;;;;6.07;1.52;;;13.80;99.90;;;;;;5063157;28;20056;-71
2022/09/15 02:49:53;;;;;;;7.18;1.70;;;13.70;99.90;;;;;;5058201;28;20041;-70
2022/09/15 02:52:20;;;;;;;9.27;1.92;;;13.70;99.90;;;;;;5059698;28;20033;-68
2022/09/15 02:54:46;;;;;;;7.47;1.70;;;13.70;99.90;;;;;;5037859;28;20051;-70
2022/09/15 02:57:13;;;;;;;8.80;1.35;;;13.70;99.90;;;;;;5061305;28;20033;-68
2022/09/15 03:02:23;;;;;;;12.55;1.90;;;13.70;99.90;;;;;;5055372;28;20052;-69
2022/09/15 03:04:49;;;;;;;4.05;1.55;;;13.70;99.90;;;;;;5063072;28;20041;-67
2022/09/15 03:07:16;;;;;;;8.32;1.77;;;13.70;99.90;;;;;;5053620;28;20376;-71
2022/09/15 03:09:42;;;;;;;10.63;2.38;;;13.80;99.90;;;;;;5053426;28;20046;-68
2022/09/15 03:12:08;;;;;;;11.40;2.28;;;13.80;99.90;;;;;;5064838;28;20255;-69
2022/09/15 03:14:34;;;;;;;10.40;1.95;;;13.80;99.90;;;;;;5059377;28;20041;-69
2022/09/15 03:17:01;;;;;;;7.97;1.90;;;13.80;99.90;;;;;;5053096;28;20052;-68
2022/09/15 03:19:27;;;;;;;9.60;1.92;;;13.80;99.90;;;;;;5058436;28;20265;-68
2022/09/15 03:21:52;;;;;;;8.07;1.73;;;13.80;99.90;;;;;;5052276;28;20331;-69
2022/09/15 03:24:18;;;;;;;6.40;1.63;;;14.00;99.90;;;;;;5062959;28;20036;-68
2022/09/15 03:26:46;;;;;;;10.68;1.58;;;13.80;99.90;;;;;;5060556;28;20047;-68
2022/09/15 03:29:12;;;;;;;7.72;1.98;;;13.90;99.90;;;;;;5053186;28;22506;-68
2022/09/15 03:31:38;;;;;;;11.48;1.67;;;13.90;99.90;;;;;;5059210;28;20036;-69
2022/09/15 03:34:07;;;;;;;7.60;1.88;;;13.90;99.90;;;;;;5050654;28;20040;-70
2022/09/15 03:36:33;;;;;;;12.65;1.60;;;13.90;99.90;;;;;;5059484;28;20449;-69
2022/09/15 03:38:58;;;;;;;9.75;1.92;;;13.90;99.90;;;;;;5061215;28;20047;-68
2022/09/15 03:41:26;;;;;;;10.40;1.80;;;13.90;99.90;;;;;;5057790;28;20059;-68
2022/09/15 03:43:55;;;;;;;8.95;1.70;;;13.90;99.90;;;;;;5065724;28;20127;-69
2022/09/15 03:46:21;;;;;;;7.15;1.70;;;13.90;99.90;;;;;;5051748;28;20087;-69
2022/09/15 03:48:47;;;;;;;10.68;2.00;;;14.00;99.90;;;;;;5050345;28;20458;-69
2022/09/15 03:51:13;;;;;;;6.97;1.67;;;14.00;99.90;;;;;;5050793;28;20356;-68
2022/09/15 03:53:40;;;;;;;6.90;1.90;;;14.00;99.90;;;;;;5053880;28;20037;-71
2022/09/15 03:56:07;;;;;;;11.48;1.80;;;14.00;99.90;;;;;;5058887;28;20052;-69
2022/09/15 03:58:32;;;;;;;8.70;2.38;;;14.00;99.90;;;;;;5037213;28;20128;-68
2022/09/15 04:00:58;;;;;;;11.15;2.05;;;14.00;99.90;;;;;;5057682;28;20131;-68
2022/09/15 04:03:24;;;;;;;8.95;1.90;;;14.10;99.90;;;;;;5060851;28;20487;-69
2022/09/15 04:05:49;;;;;;;12.93;2.13;;;14.10;99.90;;;;;;5059943;28;20060;-69
2022/09/15 04:08:15;;;;;;;9.02;1.60;;;14.10;99.90;;;;;;5057179;28;20040;-69
2022/09/15 04:10:40;;;;;;;9.00;2.63;;;14.00;99.90;;;;;;5062354;28;20040;-69
2022/09/15 04:13:07;;;;;;;8.38;1.95;;;14.00;99.90;;;;;;5038887;28;20040;-69
2022/09/15 04:15:33;;;;;;;10.48;2.00;;;14.00;99.90;;;;;;5058006;28;20056;-69
2022/09/15 04:17:58;;;;;;;9.02;1.70;;;14.00;99.90;;;;;;5050988;28;20033;-70
2022/09/15 04:20:24;;;;;;;13.20;2.25;;;14.00;99.90;;;;;;5050023;28;20077;-72
2022/09/15 04:22:52;;;;;;;9.07;1.70;;;14.00;99.90;;;;;;5043280;28;20055;-69
2022/09/15 04:25:21;;;;;;;;;;;14.00;99.90;;;;;;5056334;28;20045;-70
2022/09/15 04:27:48;;;;;;;8.80;1.88;;;14.10;99.90;;;;;;5051065;28;19944;-69
2022/09/15 04:30:13;;;;;;;9.57;1.67;;;14.00;99.90;;;;;;5053365;28;20120;-69
2022/09/15 04:32:39;;;;;;;7.88;1.92;;;14.00;99.90;;;;;;5036472;28;20136;-68
2022/09/15 04:35:05;;;;;;;10.00;2.30;;;14.00;99.90;;;;;;5055394;28;20045;-67
2022/09/15 04:37:32;;;;;;;5.60;1.60;;;13.90;99.90;;;;;;5052326;28;20102;-69
2022/09/15 04:39:58;;;;;;;11.30;2.42;;;14.00;99.90;;;;;;5062974;28;20056;-68
2022/09/15 04:42:24;;;;;;;15.23;2.25;;;14.00;99.90;;;;;;5060564;28;20044;-69
2022/09/15 04:44:50;;;;;;;11.48;2.30;;;14.00;99.90;;;;;;5054444;28;20079;-69
2022/09/15 04:47:16;;;;;;;8.32;1.95;;;14.00;99.90;;;;;;5059077;28;20079;-70
2022/09/15 04:49:42;;;;;;;13.90;2.15;;;14.00;99.90;;;;;;5054607;28;20045;-69
2022/09/15 04:52:08;;;;;;;11.95;1.88;;;14.00;99.90;;;;;;5051865;28;20380;-69
2022/09/15 04:54:34;;;;;;;8.77;1.90;;;14.10;99.90;;;;;;5056570;28;20524;-69
2022/09/15 04:57:03;;;;;;;10.93;1.90;;;14.00;99.90;;;;;;5050967;28;20048;-69
2022/09/15 04:59:29;;;;;;;11.85;2.58;;;14.00;99.90;;;;;;5055507;28;20525;-68
2022/09/15 05:01:54;;;;;;;13.70;2.40;;;14.00;99.90;;;;;;5059611;28;20124;-69
2022/09/15 05:04:20;;;;;;;8.40;1.80;;;14.00;99.90;;;;;;5053135;28;20449;-69
2022/09/15 05:06:46;;;;;;;7.88;1.92;;;13.90;99.90;;;;;;5045186;28;20584;-69
2022/09/15 05:09:13;;;;;;;8.00;1.77;;;13.90;99.90;;;;;;5051406;28;20483;-69
2022/09/15 05:11:39;;;;;;;10.35;2.05;;;13.90;99.90;;;;;;5036363;28;20102;-69
2022/09/15 05:14:05;;;;;;;12.55;1.95;;;13.90;99.90;;;;;;5053718;28;20044;-68
2022/09/15 05:16:31;;;;;;;9.45;1.95;;;13.80;99.90;;;;;;5032829;28;20049;-69
2022/09/15 05:18:59;;;;;;;11.95;2.20;;;13.80;99.90;;;;;;5055043;28;20028;-70
2022/09/15 05:21:26;;;;;;;6.95;1.58;;;13.80;99.90;;;;;;5058907;28;20372;-69
2022/09/15 05:23:52;;;;;;;6.97;1.30;;;13.70;99.90;;;;;;5052506;28;20052;-67
2022/09/15 05:26:27;;;;;;;14.18;2.00;;;13.70;99.90;;;;;;5051167;28;20044;-69
2022/09/15 05:28:52;;;;;;;8.93;1.98;;;13.60;99.90;;;;;;5052860;28;20367;-69
2022/09/15 05:31:25;;;;;;;7.80;2.28;;;13.70;99.90;;;;;;5060575;28;20051;-70
2022/09/15 05:34:00;;;;;;;8.05;1.75;;;13.60;99.90;;;;;;5051113;28;20552;-70
2022/09/15 05:36:26;;;;;;;7.55;2.22;;;13.60;99.90;;;;;;5054238;28;20063;-69
2022/09/15 05:38:52;;;;;;;6.40;1.40;;;13.60;99.90;;;;;;5050324;28;20390;-68
2022/09/15 05:41:19;;;;;;;7.47;1.60;;;13.60;99.90;;;;;;5063829;28;20036;-70
2022/09/15 05:43:46;;;;;;;4.95;1.58;;;13.60;99.90;;;;;;5058484;28;20090;-70
2022/09/15 05:46:13;;;;;;;11.07;1.67;;;13.70;99.90;;;;;;5055975;28;20348;-69
2022/09/15 05:48:39;;;;;;;14.23;2.13;;;13.80;99.90;;;;;;5058142;28;20054;-70
2022/09/15 05:51:05;;;;;;;10.65;1.80;;;13.80;99.90;;;;;;5057022;28;20479;-69
2022/09/15 05:53:33;;;;;;;8.48;2.10;;;13.80;99.90;;;;;;5061798;28;20044;-69
2022/09/15 05:56:01;;;;;;;5.80;1.50;;;13.90;99.90;;;;;;5053055;28;20041;-69
2022/09/15 05:58:28;;;;;;;7.25;2.08;;;13.90;99.90;;;;;;5060842;28;20116;-68
2022/09/15 06:00:54;;;;;;;7.30;2.10;;;14.00;99.90;;;;;;5063270;28;20044;-69
2022/09/15 06:03:22;;;;;;;8.43;1.30;;;14.00;99.90;;;;;;5057698;28;20053;-70
2022/09/15 06:05:48;;;;;;;6.50;1.75;;;14.00;99.90;;;;;;5060710;28;20110;-69
2022/09/15 06:08:15;;;;;;;6.43;1.50;;;14.20;99.90;;;;;;5054487;28;20135;-69
2022/09/15 06:10:41;;;;;;;9.60;1.92;;;14.20;99.90;;;;;;5061569;28;20040;-68
2022/09/15 06:13:06;;;;;;;13.70;1.88;;;14.20;99.90;;;;;;5061368;28;20511;-68
2022/09/15 06:15:32;;;;;;;9.35;1.98;;;14.20;99.90;;;;;;5054989;28;20037;-68
2022/09/15 06:17:58;;;;;;;10.15;1.83;;;14.30;99.90;;;;;;5059672;28;20469;-70
2022/09/15 06:20:24;;;;;;;9.60;1.83;;;14.30;99.90;;;;;;5052000;28;20055;-69
2022/09/15 06:22:51;;;;;;;8.60;2.30;;;14.40;99.90;;;;;;5059399;28;20061;-69
2022/09/15 06:25:17;;;;;;;11.20;2.13;;;14.40;99.90;;;;;;5053660;28;20037;-68
2022/09/15 06:27:53;;;;;;;12.60;2.28;;;14.60;99.90;;;;;;5059447;28;20379;-71
2022/09/15 06:30:18;;;;;;;9.68;1.85;;;14.60;99.90;;;;;;5053199;28;20116;-69
2022/09/15 06:32:44;;;;;;;12.40;2.33;;;14.60;99.90;;;;;;5064465;28;20556;-69
2022/09/15 06:35:09;;;;;;;5.65;1.50;;;14.70;99.90;;;;;;5057293;28;20478;-69
2022/09/15 06:37:35;;;;;;;10.48;1.63;;;14.70;99.90;;;;;;5067156;28;20182;-69
2022/09/15 06:40:02;;;;;;;12.23;1.85;;;14.70;99.90;;;;;;5060046;28;20060;-69
2022/09/15 06:42:28;;;;;;;7.13;1.65;;;14.80;99.90;;;;;;5056099;28;20467;-68
2022/09/15 06:44:55;;;;;;;5.72;1.83;;;14.80;99.90;;;;;;5055864;28;20083;-69
2022/09/15 06:47:20;;;;;;;9.80;2.03;;;14.80;99.90;;;;;;5052972;28;20140;-69
2022/09/15 06:49:46;;;;;;;9.05;1.67;;;14.80;99.90;;;;;;5072543;28;20119;-69
2022/09/15 06:52:11;;;;;;;12.90;1.98;;;14.80;99.90;;;;;;5068574;28;20083;-67
2022/09/15 06:54:37;;;;;;;6.95;1.75;;;14.90;99.90;;;;;;5054721;28;20045;-68
2022/09/15 06:57:03;;;;;;;6.07;1.55;;;14.90;99.90;;;;;;5062484;28;20044;-69
2022/09/15 06:59:29;;;;;;;7.00;1.58;;;14.90;99.90;;;;;;5056574;28;20094;-68
2022/09/15 07:05:11;;;;;;;9.13;1.45;;;15.00;99.90;;;;;;5047914;28;20663;-70
2022/09/15 07:08:21;;;;;;;9.10;1.50;;;15.10;99.90;;;;;;5060752;28;20045;-69
2022/09/15 07:11:09;;;;;;;5.72;1.60;;;15.10;99.90;;;;;;5053892;28;20064;-68
2022/09/15 07:14:15;;;;;;;6.53;1.30;;;15.20;99.90;;;;;;5059572;28;20048;-68
2022/09/15 07:17:04;;;;;;;8.77;1.48;;;15.40;99.90;;;;;;5027891;28;20041;-68
2022/09/15 07:19:46;;;;;;;7.15;1.55;;;15.60;99.90;;;;;;5067557;28;20171;-71
2022/09/15 07:22:22;;;;;;;4.82;1.30;;;15.90;99.90;;;;;;5072078;28;20028;-67
2022/09/15 07:24:48;;;;;;;6.20;1.77;;;16.00;99.90;;;;;;5065099;28;20040;-66
2022/09/15 07:27:30;;;;;;;9.18;1.40;;;16.00;99.90;;;;;;5062852;28;20036;-67
2022/09/15 07:30:02;;;;;;;4.72;1.45;;;16.00;99.90;;;;;;5051774;28;20121;-67
2022/09/15 07:32:28;;;;;;;6.30;1.33;;;16.00;99.90;;;;;;5061411;28;20037;-68
2022/09/15 07:34:54;;;;;;;5.93;1.35;;;15.90;99.90;;;;;;5074385;28;20044;-69
2022/09/15 07:37:19;;;;;;;5.55;1.30;;;15.80;99.90;;;;;;5061936;28;20190;-67
2022/09/15 07:39:45;;;;;;;8.90;1.67;;;15.80;99.90;;;;;;5065519;28;20048;-67
2022/09/15 07:42:11;;;;;;;7.43;1.70;;;15.60;99.90;;;;;;5063656;28;20044;-67
2022/09/15 07:44:40;;;;;;;8.10;1.50;;;15.60;99.90;;;;;;5057008;28;20090;-66
2022/09/15 07:47:07;;;;;;;9.02;1.58;;;15.50;99.90;;;;;;5068190;28;20172;-68
2022/09/15 07:49:32;;;;;;;6.63;1.65;;;15.40;99.90;;;;;;5061915;28;20175;-68
2022/09/15 07:51:58;;;;;;;8.35;1.92;;;15.40;99.90;;;;;;5062614;28;20040;-68
2022/09/15 07:54:24;;;;;;;5.88;1.67;;;15.20;99.90;;;;;;5059787;28;20060;-67
2022/09/15 07:56:50;;;;;;;6.43;1.73;;;15.10;99.90;;;;;;5041259;28;20045;-67
2022/09/15 07:59:18;;;;;;;9.50;1.50;;;15.10;99.90;;;;;;5059928;28;20037;-67
2022/09/15 08:01:55;;;;;;;;;;;;;;;;;;;;;
2022/09/15 08:04:22;;;;;;;11.55;2.33;;;15.00;99.90;;;;;;5059432;28;20284;-68
2022/09/15 08:06:47;;;;;;;8.15;1.95;;;15.10;99.90;;;;;;5033535;28;20045;-68
2022/09/15 08:09:16;;;;;;;7.15;1.55;;;15.20;99.90;;;;;;5060371;28;20035;-67
2022/09/15 08:11:42;;;;;;;8.13;2.05;;;15.40;99.90;;;;;;5055366;28;20135;-67
2022/09/15 08:14:08;;;;;;;8.95;2.33;;;15.40;99.90;;;;;;5061930;28;20028;-67
2022/09/15 08:16:34;;;;;;;7.68;1.80;;;15.50;99.90;;;;;;5078473;28;20064;-66
2022/09/15 08:19:00;;;;;;;7.13;2.20;;;15.60;99.90;;;;;;5073891;28;20032;-68
2022/09/15 08:21:27;;;;;;;8.55;1.85;;;15.80;99.90;;;;;;5066566;28;20059;-69
2022/09/15 08:23:58;;;;;;;7.55;1.80;;;16.00;99.90;;;;;;5070713;28;20062;-69
2022/09/15 08:26:25;;;;;;;9.88;2.25;;;16.10;99.90;;;;;;5071234;28;20140;-68
2022/09/15 08:28:51;;;;;;;6.13;1.38;;;16.20;99.90;;;;;;5054849;28;20403;-69
2022/09/15 08:31:17;;;;;;;7.72;1.90;;;16.30;99.90;;;;;;5065630;28;20101;-66
2022/09/15 08:33:48;;;;;;;11.30;2.33;;;16.30;99.90;;;;;;5063035;28;21759;-67
2022/09/15 08:36:14;;;;;;;13.07;2.00;;;16.40;99.90;;;;;;5071584;28;20487;-66
2022/09/15 08:38:41;;;;;;;17.60;2.50;;;16.50;99.90;;;;;;5083647;28;20120;-67
2022/09/15 08:41:18;;;;;;;12.25;2.58;;;16.50;99.90;;;;;;5070217;28;20041;-66
2022/09/15 08:43:57;;;;;;;9.00;1.50;;;16.60;99.90;;;;;;5063826;28;20040;-67
2022/09/15 08:46:31;;;;;;;4.43;1.88;;;16.70;99.90;;;;;;5065255;28;20056;-68
2022/09/15 08:49:09;;;;;;;9.65;1.88;;;16.60;99.90;;;;;;5072988;28;20064;-67
2022/09/15 08:51:45;;;;;;;8.50;1.70;;;16.80;99.90;;;;;;5073791;28;20051;-67
2022/09/15 08:54:33;;;;;;;8.88;1.50;;;16.90;99.90;;;;;;5076033;28;20071;-65
2022/09/15 08:57:02;;;;;;;8.00;1.80;;;16.90;99.90;;;;;;5058693;28;20075;-66
2022/09/15 08:59:35;;;;;;;10.32;1.42;;;17.00;99.90;;;;;;5070638;28;20049;-68
2022/09/15 09:02:28;;;;;;;8.05;1.38;;;17.00;99.90;;;;;;5065636;28;20052;-67
2022/09/15 09:05:33;;;;;;;12.85;2.40;;;17.00;99.90;;;;;;5055999;28;20087;-66
2022/09/15 09:08:25;;;;;;;10.27;1.92;;;16.70;99.90;;;;;;5064449;28;20041;-66
2022/09/15 09:10:57;;;;;;;7.90;1.70;;;16.20;99.90;;;;;;5059600;28;20048;-67
2022/09/15 09:13:52;;;;;;;7.95;1.75;;;15.90;99.90;;;;;;5065240;28;20491;-68
2022/09/15 09:16:41;;;;;;;6.47;1.48;;;15.80;99.90;;;;;;5058995;28;20045;-65
2022/09/15 09:19:13;;;;;;;8.53;1.67;;;15.60;99.90;;;;;;5074707;28;20147;-69
2022/09/15 09:21:47;;;;;;;7.50;1.77;;;15.40;99.90;;;;;;5068990;28;20585;-66
2022/09/15 09:24:28;;;;;;;8.48;2.03;;;15.40;99.90;;;;;;5060838;28;20397;-67
2022/09/15 09:26:54;;;;;;;8.60;2.25;;;15.40;99.90;;;;;;5074836;28;20045;-68
2022/09/15 09:29:31;;;;;;;7.82;1.95;;;15.30;99.90;;;;;;5070595;28;20036;-68
2022/09/15 09:31:58;;;;;;;11.52;2.47;;;15.30;99.90;;;;;;5062212;28;20052;-68
2022/09/15 09:34:44;;;;;;;12.65;2.47;;;15.20;99.90;;;;;;5066512;28;20035;-68
2022/09/15 09:37:12;;;;;;;8.65;2.13;;;15.00;99.90;;;;;;5062129;28;20056;-67
2022/09/15 09:39:38;;;;;;;10.45;1.80;;;14.90;99.90;;;;;;5061220;28;20055;-68
2022/09/15 09:42:11;;;;;;;7.50;1.90;;;14.90;99.90;;;;;;5056805;28;20044;-68
2022/09/15 09:44:39;;;;;;;12.25;2.20;;;14.90;99.90;;;;;;5055383;28;20052;-69
2022/09/15 09:47:05;;;;;;;7.85;2.20;;;14.90;99.90;;;;;;5075799;28;20048;-68
2022/09/15 09:49:33;;;;;;;6.55;1.88;;;14.90;99.90;;;;;;5057731;28;20469;-68
2022/09/15 09:52:02;;;;;;;8.25;1.80;;;14.90;99.90;;;;;;5066150;28;20533;-68
2022/09/15 09:54:30;;;;;;;8.65;1.58;;;15.00;99.90;;;;;;5061628;28;20060;-67
2022/09/15 09:57:15;;;;;;;10.68;2.22;;;15.00;99.90;;;;;;5073269;28;20155;-67
2022/09/15 09:59:49;;;;;;;5.70;1.70;;;15.20;99.90;;;;;;5050751;28;20053;-67
2022/09/15 10:02:21;;;;;;;5.70;1.67;;;15.10;99.90;;;;;;5062236;28;20110;-67
2022/09/15 10:04:51;;;;;;;15.10;2.20;;;15.20;99.90;;;;;;5055579;28;20048;-66
2022/09/15 10:07:21;;;;;;;7.95;2.00;;;15.30;99.90;;;;;;5056412;28;20075;-69
2022/09/15 10:09:49;;;;;;;6.97;1.75;;;15.50;99.90;;;;;;5069169;28;20143;-68
2022/09/15 10:12:21;;;;;;;6.45;1.75;;;15.70;99.90;;;;;;5049984;28;20045;-66
2022/09/15 10:14:52;;;;;;;9.95;1.63;;;15.70;99.90;;;;;;5060625;28;20129;-69
2022/09/15 10:17:24;;;;;;;11.60;2.15;;;15.80;99.90;;;;;;5072383;28;20034;-68
2022/09/15 10:19:52;;;;;;;5.97;1.70;;;15.80;99.90;;;;;;5068461;28;20036;-66
2022/09/15 10:22:33;;;;;;;13.25;2.10;;;15.80;99.90;;;;;;5061721;28;20383;-66
2022/09/15 10:25:18;;;;;;;11.52;2.17;;;15.70;99.90;;;;;;5059168;28;20045;-70
2022/09/15 10:27:59;;;;;;;9.35;2.08;;;15.80;99.90;;;;;;5074285;28;20040;-68
2022/09/15 10:30:26;;;;;;;7.70;1.65;;;15.80;99.90;;;;;;5068644;28;20102;-69
2022/09/15 10:32:51;;;;;;;11.80;2.05;;;15.60;99.90;;;;;;5071665;28;20064;-68
2022/09/15 10:35:19;;;;;;;11.77;1.95;;;15.60;99.90;;;;;;5068051;28;20036;-69
2022/09/15 10:37:55;;;;;;;8.23;1.75;;;15.60;99.90;;;;;;5055410;28;20049;-67
2022/09/15 10:40:33;;;;;;;8.50;1.90;;;15.40;99.90;;;;;;5061148;28;20116;-68
2022/09/15 10:43:13;;;;;;;9.25;2.13;;;15.40;99.90;;;;;;5058605;28;20503;-68
2022/09/15 10:45:43;;;;;;;7.35;1.80;;;15.40;99.90;;;;;;5063101;28;20049;-70
2022/09/15 10:48:28;;;;;;;10.82;2.45;;;15.60;99.90;;;;;;5073843;28;20062;-67
2022/09/15 10:51:00;;;;;;;4.47;1.38;;;15.70;99.90;;;;;;5060506;28;20037;-68
2022/09/15 10:53:43;;;;;;;5.95;1.65;;;15.80;99.90;;;;;;5059501;28;20110;-68
2022/09/15 10:56:33;;;;;;;5.57;1.42;;;15.80;99.90;;;;;;5065220;28;20040;-70
2022/09/15 11:02:54;;;;;;;4.47;1.30;;;15.70;99.90;;;;;;5053937;28;20035;-67
2022/09/15 11:05:44;;;;;;;4.68;1.63;;;15.80;99.90;;;;;;5056516;28;20479;-69
2022/09/15 11:08:30;;;;;;;4.18;1.02;;;15.80;99.90;;;;;;5057125;28;20080;-68
2022/09/15 11:11:11;;;;;;;4.45;1.23;;;15.90;99.90;;;;;;5067157;28;20488;-66
2022/09/15 11:14:18;;;;;;;4.57;1.20;;;16.00;99.90;;;;;;5059539;28;20487;-65
2022/09/15 11:17:09;;;;;;;4.07;1.38;;;16.10;99.90;;;;;;5053374;28;20091;-66
2022/09/15 11:19:54;;;;;;;3.95;1.25;;;16.20;99.90;;;;;;5058476;28;20051;-65
2022/09/15 11:22:32;;;;;;;9.10;1.50;;;16.30;99.90;;;;;;5060057;28;20055;-68
2022/09/15 11:25:11;;;;;;;7.68;1.90;;;16.40;99.90;;;;;;5065829;28;20047;-66
2022/09/15 11:27:52;;;;;;;7.95;1.48;;;16.50;99.90;;;;;;5057342;28;20355;-67
2022/09/15 11:30:19;;;;;;;5.00;1.50;;;16.60;99.90;;;;;;5055896;28;20100;-66
2022/09/15 11:33:03;;;;;;;9.20;1.27;;;16.70;99.90;;;;;;5065646;28;20383;-66
2022/09/15 11:36:17;;;;;;;7.90;1.50;;;16.80;99.90;;;;;;5060805;28;20039;-66
2022/09/15 11:39:18;;;;;;;5.53;1.70;;;16.90;99.90;;;;;;5054422;28;20052;-66
2022/09/15 11:42:18;;;;;;;7.15;1.50;;;17.10;99.90;;;;;;5056832;28;20041;-67
2022/09/15 11:44:46;;;;;;;6.93;1.40;;;17.30;99.90;;;;;;5065533;28;20067;-68
2022/09/15 11:47:51;;;;;;;10.23;1.92;;;17.40;99.90;;;;;;5060028;28;20053;-72
2022/09/15 11:50:19;;;;;;;7.68;1.58;;;17.50;99.90;;;;;;5018290;28;20048;-67
2022/09/15 11:52:59;;;;;;;3.38;1.40;;;17.60;99.90;;;;;;5059340;28;20423;-67
2022/09/15 11:55:44;;;;;;;6.55;1.50;;;17.50;99.90;;;;;;5070934;28;20054;-65
2022/09/15 11:58:28;;;;;;;6.05;1.50;;;17.30;99.90;;;;;;5062877;28;20045;-71
2022/09/15 12:01:31;;;;;;;4.57;1.30;;;17.50;99.90;;;;;;5060467;28;20103;-70
2022/09/15 12:03:58;;;;;;;5.43;1.75;;;18.10;99.90;;;;;;5062361;28;20041;-67
2022/09/15 12:06:52;;;;;;;4.03;1.33;;;18.20;99.90;;;;;;5061584;28;20080;-67
2022/09/15 12:09:20;;;;;;;5.38;1.40;;;18.00;99.90;;;;;;5060388;28;20060;-67
2022/09/15 12:11:50;;;;;;;3.80;1.40;;;17.80;99.90;;;;;;5063599;28;20179;-67
2022/09/15 12:14:33;;;;;;;4.80;1.40;;;17.80;99.90;;;;;;5056437;28;20066;-70
2022/09/15 12:17:00;;;;;;;2.85;1.13;;;17.90;99.90;;;;;;5044869;28;20059;-69
2022/09/15 12:19:34;;;;;;;4.20;1.17;;;18.30;99.90;;;;;;5059795;28;20037;-68
2022/09/15 12:22:11;;;;;;;5.00;1.13;;;18.70;99.90;;;;;;5053934;28;20124;-68
2022/09/15 12:24:44;;;;;;;8.35;1.35;;;18.90;98.80;;;;;;5050377;28;20052;-68
2022/09/15 12:27:16;;;;;;;3.63;1.17;;;18.60;98.40;;;;;;5063011;28;20074;-67
2022/09/15 12:29:53;;;;;;;3.78;1.40;;;18.40;99.60;;;;;;5066736;28;20048;-68
2022/09/15 12:32:33;;;;;;;5.60;1.50;;;18.30;99.90;;;;;;5050438;28;20045;-72
2022/09/15 12:35:05;;;;;;;11.88;1.70;;;18.30;99.90;;;;;;5054388;28;20045;-68
2022/09/15 12:37:41;;;;;;;8.27;1.75;;;18.40;99.90;;;;;;5049909;28;20175;-68
2022/09/15 12:40:34;;;;;;;5.97;1.42;;;18.40;99.90;;;;;;5062261;28;20045;-68
2022/09/15 12:43:19;;;;;;;8.13;1.88;;;18.30;99.90;;;;;;5046894;28;20052;-68
2022/09/15 12:45:58;;;;;;;8.35;1.73;;;18.10;99.90;;;;;;5067399;28;20056;-67
2022/09/15 12:48:25;;;;;;;8.05;1.88;;;18.00;99.90;;;;;;5062094;28;20107;-68
2022/09/15 12:50:58;;;;;;;8.75;1.40;;;18.10;99.90;;;;;;5061143;28;20068;-69
2022/09/15 12:53:28;;;;;;;6.78;1.88;;;18.20;99.90;;;;;;5055321;28;20112;-68
2022/09/15 12:55:58;;;;;;;6.47;1.60;;;18.20;99.90;;;;;;5067456;28;20491;-67
2022/09/15 12:58:36;;;;;;;5.70;1.48;;;18.20;99.90;;;;;;5062575;28;20054;-68
2022/09/15 13:01:23;;;;;;;7.60;1.87;;;17.90;99.90;;;;;;5059429;28;20103;-66
2022/09/15 13:03:52;;;;;;;7.57;1.98;;;17.60;99.90;;;;;;5067397;28;20044;-68
2022/09/15 13:06:34;;;;;;;7.88;2.10;;;17.30;99.90;;;;;;5050993;28;20105;-67
2022/09/15 13:09:04;;;;;;;8.77;1.70;;;17.10;99.90;;;;;;5052511;28;20356;-67
2022/09/15 13:11:36;;;;;;;13.48;2.10;;;17.00;99.90;;;;;;5055894;28;20052;-67
2022/09/15 13:14:07;;;;;;;12.73;2.08;;;16.90;99.90;;;;;;5054500;28;20044;-69
2022/09/15 13:16:39;;;;;;;6.47;1.60;;;16.70;99.90;;;;;;5057650;28;20573;-67
2022/09/15 13:19:25;;;;;;;7.28;1.80;;;16.70;99.90;;;;;;5054493;28;20064;-66